sensor_id;sensor_type;location;lat;lon;timestamp;pressure;altitude;pressure_sealevel;temperature;humidity
32320;BME280;19080;51.750;5.888;2023-03-11T00:00:17;100326.63;;;0.94;100.00
32320;BME280;19080;51.750;5.888;2023-03-11T00:02:46;100380.56;;;1.11;100.00
32320;BME280;19080;51.750;5.888;2023-03-11T00:05:19;100466.16;;;1.54;100.00
32320;BME280;19080;51.750;5.888;2023-03-11T00:07:46;100474.34;;;1.42;100.00
32320;BME280;19080;51.750;5.888;2023-03-11T00:10:18;100461.53;;;1.29;100.00
32320;BME280;19080;51.750;5.888;2023-03-11T00:12:45;100480.19;;;1.37;100.00
32320;BME280;19080;51.750;5.888;2023-03-11T00:15:12;100419.41;;;1.04;100.00
32320;BME280;19080;51.750;5.888;2023-03-11T00:17:39;100381.53;;;0.76;100.00
32320;BME280;19080;51.750;5.888;2023-03-11T00:20:07;100498.47;;;1.37;100.00
32320;BME280;19080;51.750;5.888;2023-03-11T00:22:40;100417.97;;;0.73;100.00
32320;BME280;19080;51.750;5.888;2023-03-11T00:25:07;100486.38;;;1.02;100.00
32320;BME280;19080;51.750;5.888;2023-03-11T00:27:35;100398.44;;;0.47;100.00
32320;BME280;19080;51.750;5.888;2023-03-11T00:30:03;100406.28;;;0.47;100.00
32320;BME280;19080;51.750;5.888;2023-03-11T00:32:31;100509.75;;;0.98;100.00
32320;BME280;19080;51.750;5.888;2023-03-11T00:34:58;100387.41;;;0.35;100.00
32320;BME280;19080;51.750;5.888;2023-03-11T00:37:24;100493.63;;;0.89;100.00
32320;BME280;19080;51.750;5.888;2023-03-11T00:39:51;100494.81;;;0.96;100.00
32320;BME280;19080;51.750;5.888;2023-03-11T00:42:17;100426.63;;;0.54;100.00
32320;BME280;19080;51.750;5.888;2023-03-11T00:44:44;100425.66;;;0.52;100.00
32320;BME280;19080;51.750;5.888;2023-03-11T00:47:11;100398.91;;;0.39;100.00
32320;BME280;19080;51.750;5.888;2023-03-11T00:49:38;100407.69;;;0.41;100.00
32320;BME280;19080;51.750;5.888;2023-03-11T00:52:04;100340.03;;;-0.10;100.00
32320;BME280;19080;51.750;5.888;2023-03-11T00:54:31;100514.97;;;0.81;100.00
32320;BME280;19080;51.750;5.888;2023-03-11T00:56:58;100537.66;;;0.82;100.00
32320;BME280;19080;51.750;5.888;2023-03-11T00:59:25;100515.88;;;0.63;100.00
32320;BME280;19080;51.750;5.888;2023-03-11T01:01:51;100433.94;;;0.08;100.00
32320;BME280;19080;51.750;5.888;2023-03-11T01:04:20;100434.09;;;-0.07;100.00
32320;BME280;19080;51.750;5.888;2023-03-11T01:06:46;100529.84;;;0.30;100.00
32320;BME280;19080;51.750;5.888;2023-03-11T01:09:13;100451.94;;;-0.14;100.00
32320;BME280;19080;51.750;5.888;2023-03-11T01:11:41;100436.91;;;-0.36;100.00
32320;BME280;19080;51.750;5.888;2023-03-11T01:14:08;100492.47;;;-0.21;100.00
32320;BME280;19080;51.750;5.888;2023-03-11T01:16:36;100431.06;;;-0.64;100.00
32320;BME280;19080;51.750;5.888;2023-03-11T01:19:02;100520.09;;;-0.24;100.00
32320;BME280;19080;51.750;5.888;2023-03-11T01:21:29;100538.69;;;-0.18;100.00
32320;BME280;19080;51.750;5.888;2023-03-11T01:23:55;100453.22;;;-0.73;100.00
32320;BME280;19080;51.750;5.888;2023-03-11T01:26:22;100444.00;;;-0.82;100.00
32320;BME280;19080;51.750;5.888;2023-03-11T01:28:49;100451.25;;;-0.77;100.00
32320;BME280;19080;51.750;5.888;2023-03-11T01:31:15;100570.53;;;-0.08;100.00
32320;BME280;19080;51.750;5.888;2023-03-11T01:33:42;100459.66;;;-0.66;100.00
32320;BME280;19080;51.750;5.888;2023-03-11T01:36:10;100455.66;;;-0.59;100.00
32320;BME280;19080;51.750;5.888;2023-03-11T01:38:37;100567.53;;;0.19;100.00
32320;BME280;19080;51.750;5.888;2023-03-11T01:41:03;100555.91;;;0.12;100.00
32320;BME280;19080;51.750;5.888;2023-03-11T01:49:23;100549.44;;;0.22;100.00
32320;BME280;19080;51.750;5.888;2023-03-11T01:51:51;100479.81;;;-0.13;100.00
32320;BME280;19080;51.750;5.888;2023-03-11T01:54:34;100481.94;;;-0.06;100.00
32320;BME280;19080;51.750;5.888;2023-03-11T01:57:05;100556.41;;;0.39;100.00
32320;BME280;19080;51.750;5.888;2023-03-11T01:59:37;100458.22;;;-0.11;100.00
32320;BME280;19080;51.750;5.888;2023-03-11T02:04:58;100573.69;;;0.53;100.00
32320;BME280;19080;51.750;5.888;2023-03-11T02:07:26;100572.88;;;0.54;100.00
32320;BME280;19080;51.750;5.888;2023-03-11T02:09:54;100563.09;;;0.50;100.00
32320;BME280;19080;51.750;5.888;2023-03-11T02:12:21;100580.19;;;0.61;100.00
32320;BME280;19080;51.750;5.888;2023-03-11T02:14:49;100549.13;;;0.50;100.00
32320;BME280;19080;51.750;5.888;2023-03-11T02:17:17;100588.88;;;0.78;100.00
32320;BME280;19080;51.750;5.888;2023-03-11T02:19:56;100596.41;;;0.90;100.00
32320;BME280;19080;51.750;5.888;2023-03-11T02:22:25;100576.34;;;0.89;100.00
32320;BME280;19080;51.750;5.888;2023-03-11T02:27:46;100602.63;;;1.10;100.00
32320;BME280;19080;51.750;5.888;2023-03-11T02:30:15;100540.22;;;0.80;100.00
32320;BME280;19080;51.750;5.888;2023-03-11T02:32:44;100602.94;;;1.16;100.00
32320;BME280;19080;51.750;5.888;2023-03-11T02:35:14;100600.09;;;1.11;100.00
32320;BME280;19080;51.750;5.888;2023-03-11T02:37:46;100584.69;;;1.00;100.00
32320;BME280;19080;51.750;5.888;2023-03-11T02:40:28;100606.06;;;1.09;100.00
32320;BME280;19080;51.750;5.888;2023-03-11T02:42:59;100565.75;;;0.86;100.00
32320;BME280;19080;51.750;5.888;2023-03-11T02:45:28;100520.06;;;0.60;100.00
32320;BME280;19080;51.750;5.888;2023-03-11T02:47:57;100568.81;;;0.95;100.00
32320;BME280;19080;51.750;5.888;2023-03-11T02:50:25;100443.63;;;0.28;100.00
32320;BME280;19080;51.750;5.888;2023-03-11T02:52:54;100502.16;;;0.68;100.00
32320;BME280;19080;51.750;5.888;2023-03-11T02:55:22;100573.72;;;1.07;100.00
32320;BME280;19080;51.750;5.888;2023-03-11T02:57:48;100502.50;;;0.75;100.00
32320;BME280;19080;51.750;5.888;2023-03-11T03:00:17;100588.19;;;1.36;100.00
32320;BME280;19080;51.750;5.888;2023-03-11T03:02:51;100524.38;;;0.95;100.00
32320;BME280;19080;51.750;5.888;2023-03-11T03:05:20;100589.03;;;1.35;100.00
32320;BME280;19080;51.750;5.888;2023-03-11T03:07:49;100586.03;;;1.27;100.00
32320;BME280;19080;51.750;5.888;2023-03-11T03:10:18;100510.50;;;0.96;100.00
32320;BME280;19080;51.750;5.888;2023-03-11T03:12:45;100539.16;;;1.12;100.00
32320;BME280;19080;51.750;5.888;2023-03-11T03:15:12;100611.56;;;1.50;100.00
32320;BME280;19080;51.750;5.888;2023-03-11T03:17:42;100584.41;;;1.29;100.00
32320;BME280;19080;51.750;5.888;2023-03-11T03:20:10;100515.03;;;1.00;100.00
32320;BME280;19080;51.750;5.888;2023-03-11T03:22:41;100593.66;;;1.40;100.00
32320;BME280;19080;51.750;5.888;2023-03-11T03:25:10;100516.09;;;1.04;100.00
32320;BME280;19080;51.750;5.888;2023-03-11T03:27:36;100510.50;;;0.96;100.00
32320;BME280;19080;51.750;5.888;2023-03-11T03:30:06;100600.22;;;1.50;100.00
32320;BME280;19080;51.750;5.888;2023-03-11T03:32:35;100525.78;;;1.06;100.00
32320;BME280;19080;51.750;5.888;2023-03-11T03:35:03;100647.25;;;1.68;100.00
32320;BME280;19080;51.750;5.888;2023-03-11T03:37:48;100560.06;;;1.12;100.00
32320;BME280;19080;51.750;5.888;2023-03-11T03:40:15;100564.47;;;1.13;100.00
32320;BME280;19080;51.750;5.888;2023-03-11T03:42:42;100563.34;;;1.08;100.00
32320;BME280;19080;51.750;5.888;2023-03-11T03:45:09;100569.47;;;1.09;100.00
32320;BME280;19080;51.750;5.888;2023-03-11T03:47:36;100659.97;;;1.60;100.00
32320;BME280;19080;51.750;5.888;2023-03-11T03:50:04;100563.13;;;1.04;100.00
32320;BME280;19080;51.750;5.888;2023-03-11T03:52:32;100680.59;;;1.54;100.00
32320;BME280;19080;51.750;5.888;2023-03-11T03:55:00;100652.91;;;1.40;100.00
32320;BME280;19080;51.750;5.888;2023-03-11T03:57:27;100579.09;;;0.92;100.00
32320;BME280;19080;51.750;5.888;2023-03-11T03:59:54;100638.25;;;1.25;100.00
32320;BME280;19080;51.750;5.888;2023-03-11T04:02:21;100676.44;;;1.40;100.00
32320;BME280;19080;51.750;5.888;2023-03-11T04:04:49;100572.28;;;0.78;100.00
32320;BME280;19080;51.750;5.888;2023-03-11T04:07:16;100573.72;;;0.71;100.00
32320;BME280;19080;51.750;5.888;2023-03-11T04:09:43;100548.91;;;0.45;100.00
32320;BME280;19080;51.750;5.888;2023-03-11T04:12:13;100650.00;;;0.82;100.00
32320;BME280;19080;51.750;5.888;2023-03-11T04:14:40;100587.78;;;0.23;100.00
32320;BME280;19080;51.750;5.888;2023-03-11T04:17:10;100435.06;;;-0.87;100.00
32320;BME280;19080;51.750;5.888;2023-03-11T04:19:37;100611.94;;;-0.14;100.00
32320;BME280;19080;51.750;5.888;2023-03-11T04:22:04;100582.97;;;-0.51;100.00
32320;BME280;19080;51.750;5.888;2023-03-11T04:24:31;100597.38;;;-0.57;100.00
32320;BME280;19080;51.750;5.888;2023-03-11T04:26:58;100657.84;;;-0.48;100.00
32320;BME280;19080;51.750;5.888;2023-03-11T04:29:25;100683.78;;;-0.35;100.00
32320;BME280;19080;51.750;5.888;2023-03-11T04:31:52;100578.72;;;-1.11;100.00
32320;BME280;19080;51.750;5.888;2023-03-11T04:34:19;100699.94;;;-0.57;100.00
32320;BME280;19080;51.750;5.888;2023-03-11T04:36:46;100666.00;;;-0.88;100.00
32320;BME280;19080;51.750;5.888;2023-03-11T04:39:15;100686.13;;;-0.85;100.00
32320;BME280;19080;51.750;5.888;2023-03-11T04:41:44;100607.84;;;-1.33;100.00
32320;BME280;19080;51.750;5.888;2023-03-11T04:44:15;100657.94;;;-1.07;100.00
32320;BME280;19080;51.750;5.888;2023-03-11T04:46:42;100674.28;;;-1.10;100.00
32320;BME280;19080;51.750;5.888;2023-03-11T04:49:09;100700.16;;;-0.98;100.00
32320;BME280;19080;51.750;5.888;2023-03-11T04:51:36;100609.81;;;-1.43;100.00
32320;BME280;19080;51.750;5.888;2023-03-11T04:54:04;100574.19;;;-1.59;100.00
32320;BME280;19080;51.750;5.888;2023-03-11T04:56:30;100602.91;;;-1.43;100.00
32320;BME280;19080;51.750;5.888;2023-03-11T04:58:57;100636.66;;;-1.29;100.00
32320;BME280;19080;51.750;5.888;2023-03-11T05:01:25;100680.56;;;-1.06;100.00
32320;BME280;19080;51.750;5.888;2023-03-11T05:03:51;100628.13;;;-1.42;100.00
32320;BME280;19080;51.750;5.888;2023-03-11T05:06:18;100683.25;;;-1.19;100.00
32320;BME280;19080;51.750;5.888;2023-03-11T05:08:45;100675.91;;;-1.26;100.00
32320;BME280;19080;51.750;5.888;2023-03-11T05:11:12;100672.56;;;-1.39;100.00
32320;BME280;19080;51.750;5.888;2023-03-11T05:13:40;100654.88;;;-1.44;100.00
32320;BME280;19080;51.750;5.888;2023-03-11T05:16:08;100630.06;;;-1.67;100.00
32320;BME280;19080;51.750;5.888;2023-03-11T05:18:35;100521.59;;;-2.27;100.00
32320;BME280;19080;51.750;5.888;2023-03-11T05:21:02;100467.00;;;-2.70;100.00
32320;BME280;19080;51.750;5.888;2023-03-11T05:23:31;100734.97;;;-1.25;100.00
32320;BME280;19080;51.750;5.888;2023-03-11T05:25:58;100741.59;;;-1.31;100.00
32320;BME280;19080;51.750;5.888;2023-03-11T05:28:25;100633.13;;;-1.89;100.00
32320;BME280;19080;51.750;5.888;2023-03-11T05:30:53;100696.94;;;-1.51;100.00
32320;BME280;19080;51.750;5.888;2023-03-11T05:33:20;100620.75;;;-1.78;100.00
32320;BME280;19080;51.750;5.888;2023-03-11T05:35:48;100740.00;;;-1.14;100.00
32320;BME280;19080;51.750;5.888;2023-03-11T05:38:18;100724.03;;;-1.20;100.00
32320;BME280;19080;51.750;5.888;2023-03-11T05:40:45;100705.34;;;-1.27;100.00
32320;BME280;19080;51.750;5.888;2023-03-11T05:43:12;100606.75;;;-1.80;100.00
32320;BME280;19080;51.750;5.888;2023-03-11T05:45:41;100740.38;;;-1.08;100.00
32320;BME280;19080;51.750;5.888;2023-03-11T05:48:09;100714.13;;;-1.25;100.00
32320;BME280;19080;51.750;5.888;2023-03-11T05:50:36;100627.19;;;-1.86;100.00
32320;BME280;19080;51.750;5.888;2023-03-11T05:53:04;100650.00;;;-1.82;100.00
32320;BME280;19080;51.750;5.888;2023-03-11T05:55:30;100567.56;;;-2.26;100.00
32320;BME280;19080;51.750;5.888;2023-03-11T05:57:58;100725.84;;;-1.47;100.00
32320;BME280;19080;51.750;5.888;2023-03-11T06:00:25;100733.38;;;-1.51;100.00
32320;BME280;19080;51.750;5.888;2023-03-11T06:02:56;100770.66;;;-1.38;100.00
32320;BME280;19080;51.750;5.888;2023-03-11T06:05:23;100651.00;;;-2.08;100.00
32320;BME280;19080;51.750;5.888;2023-03-11T06:07:51;100743.75;;;-1.66;100.00
32320;BME280;19080;51.750;5.888;2023-03-11T06:10:20;100671.28;;;-2.03;100.00
32320;BME280;19080;51.750;5.888;2023-03-11T06:12:47;100757.34;;;-1.57;100.00
32320;BME280;19080;51.750;5.888;2023-03-11T06:15:33;100751.94;;;-1.60;100.00
32320;BME280;19080;51.750;5.888;2023-03-11T06:18:00;100688.53;;;-1.90;100.00
32320;BME280;19080;51.750;5.888;2023-03-11T06:20:27;100798.69;;;-1.34;100.00
32320;BME280;19080;51.750;5.888;2023-03-11T06:22:54;100791.59;;;-1.36;100.00
32320;BME280;19080;51.750;5.888;2023-03-11T06:25:22;100686.88;;;-2.03;100.00
32320;BME280;19080;51.750;5.888;2023-03-11T06:27:52;100691.09;;;-2.05;100.00
32320;BME280;19080;51.750;5.888;2023-03-11T06:30:22;100746.97;;;-1.70;100.00
32320;BME280;19080;51.750;5.888;2023-03-11T06:32:59;100775.16;;;-1.63;100.00
32320;BME280;19080;51.750;5.888;2023-03-11T06:35:25;100813.03;;;-1.40;100.00
32320;BME280;19080;51.750;5.888;2023-03-11T06:37:52;100778.16;;;-1.57;100.00
32320;BME280;19080;51.750;5.888;2023-03-11T06:40:19;100729.22;;;-1.77;100.00
32320;BME280;19080;51.750;5.888;2023-03-11T06:42:45;100715.63;;;-1.86;100.00
32320;BME280;19080;51.750;5.888;2023-03-11T06:45:16;100793.09;;;-1.40;100.00
32320;BME280;19080;51.750;5.888;2023-03-11T06:47:46;100716.22;;;-1.77;100.00
32320;BME280;19080;51.750;5.888;2023-03-11T06:50:13;100743.31;;;-1.59;100.00
32320;BME280;19080;51.750;5.888;2023-03-11T06:52:40;100795.66;;;-1.26;100.00
32320;BME280;19080;51.750;5.888;2023-03-11T06:55:07;100830.56;;;-0.95;100.00
32320;BME280;19080;51.750;5.888;2023-03-11T06:57:35;100839.94;;;-0.84;100.00
32320;BME280;19080;51.750;5.888;2023-03-11T07:00:05;100804.16;;;-1.01;100.00
32320;BME280;19080;51.750;5.888;2023-03-11T07:02:34;100814.97;;;-0.80;100.00
32320;BME280;19080;51.750;5.888;2023-03-11T07:05:01;100816.50;;;-0.69;100.00
32320;BME280;19080;51.750;5.888;2023-03-11T07:07:27;100825.28;;;-0.08;100.00
32320;BME280;19080;51.750;5.888;2023-03-11T07:09:55;100841.00;;;0.55;100.00
32320;BME280;19080;51.750;5.888;2023-03-11T07:12:23;100784.84;;;0.96;100.00
32320;BME280;19080;51.750;5.888;2023-03-11T07:14:55;100805.19;;;1.52;100.00
32320;BME280;19080;51.750;5.888;2023-03-11T07:17:22;100832.19;;;2.22;100.00
32320;BME280;19080;51.750;5.888;2023-03-11T07:19:51;100761.38;;;2.38;100.00
32320;BME280;19080;51.750;5.888;2023-03-11T07:22:18;100858.13;;;3.29;100.00
32320;BME280;19080;51.750;5.888;2023-03-11T07:24:46;100776.53;;;3.22;100.00
32320;BME280;19080;51.750;5.888;2023-03-11T07:27:13;100868.09;;;4.19;100.00
32320;BME280;19080;51.750;5.888;2023-03-11T07:29:40;100734.13;;;3.97;100.00
32320;BME280;19080;51.750;5.888;2023-03-11T07:32:07;100868.00;;;5.05;100.00
32320;BME280;19080;51.750;5.888;2023-03-11T07:34:34;100797.19;;;5.11;100.00
32320;BME280;19080;51.750;5.888;2023-03-11T07:37:02;100866.56;;;5.63;100.00
32320;BME280;19080;51.750;5.888;2023-03-11T07:39:28;100879.19;;;5.97;100.00
32320;BME280;19080;51.750;5.888;2023-03-11T07:41:55;100783.56;;;5.48;100.00
32320;BME280;19080;51.750;5.888;2023-03-11T07:44:29;100811.31;;;5.39;100.00
32320;BME280;19080;51.750;5.888;2023-03-11T07:46:56;100849.03;;;5.63;100.00
32320;BME280;19080;51.750;5.888;2023-03-11T07:49:22;100824.69;;;5.70;100.00
32320;BME280;19080;51.750;5.888;2023-03-11T07:51:49;100810.91;;;6.03;100.00
32320;BME280;19080;51.750;5.888;2023-03-11T07:54:16;100809.72;;;6.48;100.00
32320;BME280;19080;51.750;5.888;2023-03-11T07:56:42;100863.25;;;7.03;100.00
32320;BME280;19080;51.750;5.888;2023-03-11T07:59:09;100804.19;;;6.99;100.00
32320;BME280;19080;51.750;5.888;2023-03-11T08:01:36;100892.19;;;7.93;100.00
32320;BME280;19080;51.750;5.888;2023-03-11T08:04:08;100822.91;;;7.71;100.00
32320;BME280;19080;51.750;5.888;2023-03-11T08:06:41;100902.16;;;8.03;95.24
32320;BME280;19080;51.750;5.888;2023-03-11T08:09:08;100881.03;;;8.04;100.00
32320;BME280;19080;51.750;5.888;2023-03-11T08:11:35;100826.31;;;8.00;91.35
32320;BME280;19080;51.750;5.888;2023-03-11T08:14:02;100906.09;;;8.19;100.00
32320;BME280;19080;51.750;5.888;2023-03-11T08:16:30;100914.53;;;8.37;94.26
32320;BME280;19080;51.750;5.888;2023-03-11T08:18:57;100901.63;;;8.16;82.90
32320;BME280;19080;51.750;5.888;2023-03-11T08:21:25;100885.81;;;8.19;82.70
32320;BME280;19080;51.750;5.888;2023-03-11T08:23:56;100875.47;;;8.28;81.89
32320;BME280;19080;51.750;5.888;2023-03-11T08:26:24;100823.56;;;8.32;85.54
32320;BME280;19080;51.750;5.888;2023-03-11T08:28:50;100896.69;;;9.45;76.92
32320;BME280;19080;51.750;5.888;2023-03-11T08:31:20;100910.41;;;9.68;68.27
32320;BME280;19080;51.750;5.888;2023-03-11T08:33:51;100836.38;;;8.90;65.39
32320;BME280;19080;51.750;5.888;2023-03-11T08:36:18;100907.41;;;9.52;75.99
32320;BME280;19080;51.750;5.888;2023-03-11T08:38:45;100860.94;;;9.25;69.70
32320;BME280;19080;51.750;5.888;2023-03-11T08:41:13;100815.94;;;9.25;67.33
32320;BME280;19080;51.750;5.888;2023-03-11T08:43:40;100895.41;;;9.70;67.06
32320;BME280;19080;51.750;5.888;2023-03-11T08:46:07;100863.00;;;9.38;63.93
32320;BME280;19080;51.750;5.888;2023-03-11T08:48:35;100816.94;;;9.32;63.04
32320;BME280;19080;51.750;5.888;2023-03-11T08:51:08;100906.09;;;9.75;63.98
32320;BME280;19080;51.750;5.888;2023-03-11T08:53:35;100825.22;;;9.49;66.52
32320;BME280;19080;51.750;5.888;2023-03-11T08:56:03;100822.13;;;9.72;64.95
32320;BME280;19080;51.750;5.888;2023-03-11T08:58:30;100823.06;;;9.74;61.18
32320;BME280;19080;51.750;5.888;2023-03-11T09:00:57;100834.50;;;9.73;59.70
32320;BME280;19080;51.750;5.888;2023-03-11T09:03:23;100847.63;;;9.66;61.48
32320;BME280;19080;51.750;5.888;2023-03-11T09:05:58;100902.47;;;10.69;57.14
32320;BME280;19080;51.750;5.888;2023-03-11T09:08:26;100918.91;;;10.46;56.87
32320;BME280;19080;51.750;5.888;2023-03-11T09:10:52;100905.78;;;10.03;54.03
32320;BME280;19080;51.750;5.888;2023-03-11T09:13:19;100945.78;;;10.67;55.18
32320;BME280;19080;51.750;5.888;2023-03-11T09:15:49;100919.88;;;10.52;56.85
32320;BME280;19080;51.750;5.888;2023-03-11T09:18:16;100938.25;;;10.38;52.28
32320;BME280;19080;51.750;5.888;2023-03-11T09:20:44;100862.38;;;9.98;55.91
32320;BME280;19080;51.750;5.888;2023-03-11T09:23:12;100933.53;;;10.75;56.84
32320;BME280;19080;51.750;5.888;2023-03-11T09:25:39;100853.63;;;10.57;53.90
32320;BME280;19080;51.750;5.888;2023-03-11T09:28:06;100849.78;;;10.98;52.03
32320;BME280;19080;51.750;5.888;2023-03-11T09:30:33;100854.03;;;10.84;52.44
32320;BME280;19080;51.750;5.888;2023-03-11T09:33:00;100914.06;;;11.36;53.15
32320;BME280;19080;51.750;5.888;2023-03-11T09:35:26;100877.56;;;11.22;49.49
32320;BME280;19080;51.750;5.888;2023-03-11T09:37:53;100949.34;;;11.26;51.24
32320;BME280;19080;51.750;5.888;2023-03-11T09:40:22;100920.94;;;11.89;50.04
32320;BME280;19080;51.750;5.888;2023-03-11T09:43:10;100935.47;;;13.38;44.54
32320;BME280;19080;51.750;5.888;2023-03-11T09:48:39;100867.41;;;12.54;43.53
32320;BME280;19080;51.750;5.888;2023-03-11T09:51:22;100922.03;;;13.17;44.59
32320;BME280;19080;51.750;5.888;2023-03-11T09:53:58;100963.91;;;13.38;47.97
32320;BME280;19080;51.750;5.888;2023-03-11T09:56:29;100883.06;;;13.40;44.34
32320;BME280;19080;51.750;5.888;2023-03-11T09:59:25;100951.53;;;13.49;44.18
32320;BME280;19080;51.750;5.888;2023-03-11T10:01:54;100900.50;;;12.89;47.59
32320;BME280;19080;51.750;5.888;2023-03-11T10:07:16;100864.59;;;12.35;45.18
32320;BME280;19080;51.750;5.888;2023-03-11T10:09:51;100954.59;;;12.81;46.69
32320;BME280;19080;51.750;5.888;2023-03-11T10:20:19;100939.38;;;14.71;38.17
32320;BME280;19080;51.750;5.888;2023-03-11T10:23:10;100946.50;;;14.46;39.26
32320;BME280;19080;51.750;5.888;2023-03-11T10:25:53;100862.72;;;13.73;42.37
32320;BME280;19080;51.750;5.888;2023-03-11T10:28:32;100942.78;;;13.91;40.79
32320;BME280;19080;51.750;5.888;2023-03-11T10:31:20;100872.22;;;13.10;41.39
32320;BME280;19080;51.750;5.888;2023-03-11T10:34:10;100927.41;;;13.26;42.03
32320;BME280;19080;51.750;5.888;2023-03-11T10:37:10;100951.84;;;14.72;40.78
32320;BME280;19080;51.750;5.888;2023-03-11T10:39:39;100877.91;;;14.86;38.70
32320;BME280;19080;51.750;5.888;2023-03-11T10:42:12;100954.50;;;15.09;37.62
32320;BME280;19080;51.750;5.888;2023-03-11T10:44:41;100906.31;;;13.90;38.83
32320;BME280;19080;51.750;5.888;2023-03-11T10:47:19;100933.72;;;13.40;38.96
32320;BME280;19080;51.750;5.888;2023-03-11T10:49:46;100939.94;;;13.39;38.19
32320;BME280;19080;51.750;5.888;2023-03-11T10:52:13;100954.97;;;13.26;39.60
32320;BME280;19080;51.750;5.888;2023-03-11T10:54:42;100942.88;;;12.59;39.67
32320;BME280;19080;51.750;5.888;2023-03-11T10:57:29;100897.22;;;11.36;41.26
32320;BME280;19080;51.750;5.888;2023-03-11T11:00:00;100895.06;;;11.07;42.89
32320;BME280;19080;51.750;5.888;2023-03-11T11:02:37;100866.97;;;10.63;41.95
32320;BME280;19080;51.750;5.888;2023-03-11T11:07:45;100853.81;;;10.15;42.86
32320;BME280;19080;51.750;5.888;2023-03-11T11:10:26;100872.41;;;10.16;43.86
32320;BME280;19080;51.750;5.888;2023-03-11T11:12:58;100955.97;;;10.95;43.73
32320;BME280;19080;51.750;5.888;2023-03-11T11:15:39;100941.47;;;12.02;40.94
32320;BME280;19080;51.750;5.888;2023-03-11T11:18:21;100909.06;;;12.49;38.68
32320;BME280;19080;51.750;5.888;2023-03-11T11:21:07;100946.97;;;13.28;38.39
32320;BME280;19080;51.750;5.888;2023-03-11T11:24:02;100955.84;;;13.24;38.63
32320;BME280;19080;51.750;5.888;2023-03-11T11:26:29;100921.91;;;13.01;39.54
32320;BME280;19080;51.750;5.888;2023-03-11T11:31:36;100881.56;;;12.48;40.24
32320;BME280;19080;51.750;5.888;2023-03-11T11:34:30;100962.84;;;13.16;38.12
32320;BME280;19080;51.750;5.888;2023-03-11T11:36:59;100942.88;;;12.59;41.08
32320;BME280;19080;51.750;5.888;2023-03-11T11:39:31;100878.03;;;11.61;42.23
32320;BME280;19080;51.750;5.888;2023-03-11T11:42:00;100866.06;;;11.98;39.76
32320;BME280;19080;51.750;5.888;2023-03-11T11:44:33;100875.59;;;12.81;40.45
32320;BME280;19080;51.750;5.888;2023-03-11T11:47:04;100872.50;;;13.74;36.50
32320;BME280;19080;51.750;5.888;2023-03-11T11:49:35;100949.16;;;14.89;38.03
32320;BME280;19080;51.750;5.888;2023-03-11T11:52:15;100942.91;;;15.02;36.90
32320;BME280;19080;51.750;5.888;2023-03-11T11:54:51;100893.84;;;13.71;38.26
32320;BME280;19080;51.750;5.888;2023-03-11T11:57:21;100968.50;;;13.64;37.09
32320;BME280;19080;51.750;5.888;2023-03-11T11:59:47;100945.56;;;15.25;36.05
32320;BME280;19080;51.750;5.888;2023-03-11T12:02:46;100959.25;;;16.46;36.19
32320;BME280;19080;51.750;5.888;2023-03-11T12:05:22;100936.53;;;15.53;34.24
32320;BME280;19080;51.750;5.888;2023-03-11T12:10:50;100958.25;;;16.60;35.30
32320;BME280;19080;51.750;5.888;2023-03-11T12:27:35;100931.59;;;17.39;31.85
32320;BME280;19080;51.750;5.888;2023-03-11T12:30:16;100924.59;;;18.61;30.15
32320;BME280;19080;51.750;5.888;2023-03-11T12:32:53;100951.81;;;18.38;29.37
32320;BME280;19080;51.750;5.888;2023-03-11T12:35:26;100858.50;;;18.46;29.12
32320;BME280;19080;51.750;5.888;2023-03-11T12:46:02;100877.78;;;18.72;27.38
32320;BME280;19080;51.750;5.888;2023-03-11T12:48:49;100923.59;;;19.15;28.86
32320;BME280;19080;51.750;5.888;2023-03-11T12:53:55;100934.19;;;20.12;27.86
32320;BME280;19080;51.750;5.888;2023-03-11T12:56:27;100934.00;;;19.80;27.79
32320;BME280;19080;51.750;5.888;2023-03-11T12:59:20;100933.16;;;19.78;26.99
32320;BME280;19080;51.750;5.888;2023-03-11T13:01:55;100890.81;;;18.95;27.38
32320;BME280;19080;51.750;5.888;2023-03-11T13:07:06;100928.75;;;19.74;27.17
32320;BME280;19080;51.750;5.888;2023-03-11T13:09:38;100862.59;;;19.61;27.28
32320;BME280;19080;51.750;5.888;2023-03-11T13:12:43;100922.31;;;19.81;26.26
32320;BME280;19080;51.750;5.888;2023-03-11T13:15:25;100834.47;;;19.31;25.99
32320;BME280;19080;51.750;5.888;2023-03-11T13:18:12;100871.75;;;19.52;26.30
32320;BME280;19080;51.750;5.888;2023-03-11T13:23:08;100919.88;;;20.83;25.14
32320;BME280;19080;51.750;5.888;2023-03-11T13:25:37;100916.06;;;20.19;25.73
32320;BME280;19080;51.750;5.888;2023-03-11T13:33:50;100885.28;;;20.99;25.24
32320;BME280;19080;51.750;5.888;2023-03-11T13:41:46;100916.63;;;21.38;23.90
32320;BME280;19080;51.750;5.888;2023-03-11T13:44:22;100884.47;;;21.29;25.45
32320;BME280;19080;51.750;5.888;2023-03-11T13:46:53;100879.78;;;20.34;24.99
32320;BME280;19080;51.750;5.888;2023-03-11T13:49:27;100913.81;;;19.99;24.33
32320;BME280;19080;51.750;5.888;2023-03-11T13:51:56;100907.50;;;20.00;25.23
32320;BME280;19080;51.750;5.888;2023-03-11T13:54:38;100888.28;;;19.77;24.25
32320;BME280;19080;51.750;5.888;2023-03-11T13:57:18;100856.91;;;19.74;25.21
32320;BME280;19080;51.750;5.888;2023-03-11T13:59:53;100848.91;;;20.10;24.53
32320;BME280;19080;51.750;5.888;2023-03-11T14:02:23;100905.94;;;20.29;24.48
32320;BME280;19080;51.750;5.888;2023-03-11T14:05:03;100895.63;;;19.69;25.39
32320;BME280;19080;51.750;5.888;2023-03-11T14:07:32;100943.31;;;17.33;26.38
32320;BME280;19080;51.750;5.888;2023-03-11T14:12:42;100946.09;;;17.24;28.55
32320;BME280;19080;51.750;5.888;2023-03-11T14:15:12;100902.66;;;17.67;26.64
32320;BME280;19080;51.750;5.888;2023-03-11T14:17:39;100890.22;;;18.24;26.19
32320;BME280;19080;51.750;5.888;2023-03-11T14:20:11;100939.50;;;18.21;26.65